Aérodrome :







RETROUVEZ-NOUS SUR...

 
LOGIN :

S'inscrire | Disclaimer

   EN    FR    IT 

 









Légende :    VFR   VFR Marginal   IFR   IFR Intensif   IFR Très Intensif
Visi : 
Plafond : 
>= 8 km
>= 3000ft
5 à 8 km
1000 à 3000 ft
1500m à 5 km
500 à 1000 ft
800 à 1500m
200 à 500 ft
< 800m
< 200 ft
Symboles :   Orages  Brouillard  Fortes neiges  Fortes précipitations  Vent > 20 kt






- Altitude de l'aérodrome : 787 ft
- Code IATA : RUT


KRUT - Rutland - Southern Vermont Regional

DERNIER METAR :
  • 180256Z AUTO 27003KT 10SM CLR M18/M20 A3066 RMK AO2 SLP398 T11831200 56002 FZRANO $

METARs EXPIRÉS :
  • 180156Z AUTO 35003KT 10SM CLR M18/M22 A3066 RMK AO2 SLP401 T11831217 FZRANO $
  • 180056Z AUTO 00000KT 10SM CLR M18/M22 A3066 RMK AO2 SLP398 T11781222 FZRANO $
  • 172356Z AUTO 35003KT 10SM CLR M17/M22 A3067 RMK AO2 SLP401 T11721217 11117 21172 51005 FZRANO $

TAF KRUT
Valide du 18 à 00h jusqu'au 19 à 00h UTC


172324Z 1800/1824 VRB04KT P6SM BKN180
FM181700 13006KT P6SM VCSH OVC070
FM182000 13008KT 1 1/2SM -SN BR OVC045



MET'MAP, la Météo Aéronautique d'un coup d'oeil ! - Copyright ORBIFLY Décembre 2007 - Disclaimer

ORBIFLY MET'MAP TEAM :

Programmation & Développement : Alexandra Zaïnal
Sur une idée originale de : Baudouin d'Aumeries
Assistance à la programmation : Marc-Olivier Méhu
Soutien technique & logistique : Manuel Goepfert

Contact : metmap@orbifly.com




SOURCES & CREDITS :

   NOAA